Time;durP1;ratioP1;P1;durP2;ratioP2;P2;SDS_P1;SDS_P2;PMS_P1;PMS_P2;Temp;Humidity;BMP_temperature;BMP_pressure;BME280_temperature;BME280_humidity;BME280_pressure;Samples;Min_cycle;Max_cycle;Signal;HPM_P1;HPM_P2
2022/11/14 00:01:41;;;;;;;8.13;4.23;;;;;;;5.57;100.00;100447.91;1689072;83;21042;-87
2022/11/14 00:07:33;;;;;;;6.97;3.70;;;;;;;5.50;100.00;100448.91;1629300;84;21115;-85
2022/11/14 00:10:23;;;;;;;5.57;3.23;;;;;;;5.47;100.00;100456.73;1664371;86;21009;-89
2022/11/14 00:13:13;;;;;;;7.60;3.70;;;;;;;5.42;100.00;100460.75;1673242;85;21091;-87
2022/11/14 00:16:00;;;;;;;9.13;4.13;;;;;;;5.36;100.00;100463.45;1671655;85;21072;-88
2022/11/14 00:18:51;;;;;;;8.93;4.33;;;;;;;5.32;100.00;100463.36;1623424;83;21163;-85
2022/11/14 00:21:46;;;;;;;6.83;4.03;;;;;;;5.27;100.00;100458.86;1723049;82;20975;-88
2022/11/14 00:30:55;;;;;;;6.70;3.63;;;;;;;5.10;100.00;100479.88;1634755;85;21122;-88
2022/11/14 00:33:42;;;;;;;8.77;4.00;;;;;;;5.04;100.00;100477.67;1632887;87;21000;-88
2022/11/14 00:36:29;;;;;;;8.53;3.97;;;;;;;5.02;100.00;100480.97;1610155;88;21039;-89
2022/11/14 00:39:18;;;;;;;9.00;3.50;;;;;;;4.97;100.00;100490.37;1613575;88;21058;-87
2022/11/14 00:42:04;;;;;;;7.07;4.13;;;;;;;4.89;100.00;100497.20;1630185;88;21071;-88
2022/11/14 00:44:51;;;;;;;6.53;4.07;;;;;;;4.83;100.00;100499.02;1613438;88;21059;-86
2022/11/14 00:47:43;;;;;;;8.10;4.27;;;;;;;4.78;100.00;100506.59;1627349;88;21011;-88
2022/11/14 00:50:32;;;;;;;7.57;3.87;;;;;;;4.78;100.00;100508.40;1630131;88;21031;-88
2022/11/14 00:53:19;;;;;;;9.23;4.10;;;;;;;4.77;100.00;100526.80;1613048;88;21006;-88
2022/11/14 00:56:05;;;;;;;9.93;4.50;;;;;;;4.71;100.00;100541.05;1639780;87;21058;-86
2022/11/14 00:58:55;;;;;;;9.40;4.63;;;;;;;4.68;100.00;100537.27;1635599;87;21039;-88
2022/11/14 01:01:42;;;;;;;11.43;4.60;;;;;;;4.66;100.00;100541.05;1629806;88;21059;-88
2022/11/14 01:04:34;;;;;;;8.53;4.27;;;;;;;4.65;100.00;100549.55;1630005;88;21050;-88
2022/11/14 01:07:24;;;;;;;9.40;4.30;;;;;;;4.64;100.00;100564.40;1629694;87;21055;-87
2022/11/14 01:10:19;;;;;;;7.63;3.73;;;;;;;4.61;100.00;100595.47;1630471;88;21019;-87
2022/11/14 01:13:07;;;;;;;6.33;3.70;;;;;;;4.55;100.00;100592.75;1629496;88;21059;-88
2022/11/14 01:16:00;;;;;;;6.70;3.63;;;;;;;4.51;100.00;100605.53;1630067;88;21070;-86
2022/11/14 01:18:53;;;;;;;7.53;3.73;;;;;;;4.47;100.00;100612.10;1626550;88;21095;-88
2022/11/14 01:21:42;;;;;;;7.10;3.70;;;;;;;4.44;100.00;100619.02;1629883;88;21062;-89
2022/11/14 01:24:32;;;;;;;5.13;3.20;;;;;;;4.43;100.00;100621.84;1629689;88;21050;-86
2022/11/14 01:27:22;;;;;;;4.43;3.17;;;;;;;4.42;100.00;100624.14;1629886;88;20995;-87
2022/11/14 01:30:10;;;;;;;7.70;3.87;;;;;;;4.37;100.00;100636.53;1629926;87;21089;-87
2022/11/14 01:32:58;;;;;;;5.20;3.20;;;;;;;4.35;100.00;100643.34;1613450;88;21074;-88
2022/11/14 01:35:48;;;;;;;5.97;3.63;;;;;;;4.32;100.00;100659.66;1629429;88;21066;-89
2022/11/14 01:38:38;;;;;;;5.43;3.30;;;;;;;4.28;100.00;100661.33;1629635;87;21078;-88
2022/11/14 01:41:26;;;;;;;5.83;3.47;;;;;;;4.23;100.00;100664.83;1609940;88;21142;-86
2022/11/14 01:44:24;;;;;;;9.23;3.73;;;;;;;4.19;100.00;100664.20;1630091;88;21025;-85
2022/11/14 01:47:17;;;;;;;8.07;4.00;;;;;;;4.19;100.00;100680.27;1629925;88;21027;-89
2022/11/14 01:50:06;;;;;;;11.47;5.27;;;;;;;4.18;100.00;100684.78;1626763;88;21059;-88
2022/11/14 01:52:52;;;;;;;13.47;4.53;;;;;;;4.15;100.00;100687.67;1630100;87;21051;-86
2022/11/14 01:55:42;;;;;;;10.57;4.13;;;;;;;4.13;100.00;100696.31;1629977;88;21059;-85
2022/11/14 01:58:34;;;;;;;10.20;4.27;;;;;;;4.11;100.00;100710.78;1629465;85;21074;-88
2022/11/14 02:01:24;;;;;;;8.10;4.30;;;;;;;4.08;100.00;100720.38;1630037;88;21018;-89
2022/11/14 02:04:11;;;;;;;8.37;4.27;;;;;;;4.04;100.00;100721.54;1629927;88;21022;-89
2022/11/14 02:07:04;;;;;;;13.93;4.60;;;;;;;3.99;100.00;100720.55;1613758;88;21122;-89
2022/11/14 02:09:53;;;;;;;9.55;4.20;;;;;;;3.92;100.00;100719.30;1630328;88;21035;-89
2022/11/14 02:12:47;;;;;;;9.17;4.37;;;;;;;3.84;100.00;100721.66;1629996;88;21075;-89
2022/11/14 02:15:37;;;;;;;9.08;4.45;;;;;;;3.76;100.00;100720.89;1629830;88;21521;-87
2022/11/14 02:18:32;;;;;;;9.90;4.63;;;;;;;3.70;100.00;100715.97;1614914;89;21038;-87
2022/11/14 02:21:22;;;;;;;8.60;3.90;;;;;;;3.65;100.00;100712.76;1622254;88;21047;-87
2022/11/14 02:24:14;;;;;;;15.93;4.23;;;;;;;3.58;100.00;100714.55;1591529;90;21091;-87
2022/11/14 02:27:12;;;;;;;9.97;4.10;;;;;;;3.52;100.00;100727.01;1555470;92;21074;-87
2022/11/14 02:30:11;;;;;;;11.40;4.30;;;;;;;3.48;100.00;100734.03;1582433;90;21046;-87
2022/11/14 02:32:58;;;;;;;9.67;4.20;;;;;;;3.46;100.00;100753.34;1591599;90;21101;-86
2022/11/14 02:35:55;;;;;;;8.63;3.87;;;;;;;3.42;100.00;100756.72;1579569;91;21073;-89
2022/11/14 02:38:49;;;;;;;10.20;4.20;;;;;;;3.38;100.00;100763.22;1590604;90;21061;-86
2022/11/14 02:41:42;;;;;;;12.10;4.63;;;;;;;3.32;100.00;100765.00;1582768;91;21073;-89
2022/11/14 02:44:27;;;;;;;8.80;4.40;;;;;;;3.28;100.00;100770.20;1591390;90;21132;-89
2022/11/14 02:47:16;;;;;;;8.93;4.23;;;;;;;3.26;100.00;100766.75;1582575;91;21128;-89
2022/11/14 02:50:06;;;;;;;5.43;3.80;;;;;;;3.21;100.00;100776.44;1591325;90;21017;-89
2022/11/14 02:52:54;;;;;;;8.80;4.13;;;;;;;3.14;100.00;100781.34;1578424;91;21081;-88
2022/11/14 02:55:46;;;;;;;8.83;4.60;;;;;;;3.08;100.00;100791.12;1563363;92;21042;-89
2022/11/14 02:58:36;;;;;;;13.20;5.00;;;;;;;3.03;100.00;100797.27;1563170;92;21065;-89
2022/11/14 03:01:24;;;;;;;11.33;4.87;;;;;;;2.96;100.00;100795.48;1506746;95;21119;-89
2022/11/14 03:04:16;;;;;;;12.47;5.50;;;;;;;2.90;100.00;100802.55;1563118;92;21117;-89
2022/11/14 03:07:06;;;;;;;13.53;5.37;;;;;;;2.85;100.00;100802.00;1554802;90;21076;-89
2022/11/14 03:09:57;;;;;;;13.27;5.60;;;;;;;2.81;100.00;100804.51;1600277;90;21104;-90
2022/11/14 03:12:50;;;;;;;13.80;5.43;;;;;;;2.79;100.00;100807.77;1599897;88;21053;-89
2022/11/14 03:15:39;;;;;;;13.10;4.87;;;;;;;2.75;100.00;100810.27;1599494;90;21076;-89
2022/11/14 03:18:30;;;;;;;10.20;4.20;;;;;;;2.72;100.00;100811.80;1583321;90;21140;-89
2022/11/14 03:21:29;;;;;;;8.13;4.17;;;;;;;2.67;100.00;100814.77;1606467;89;21055;-89
2022/11/14 03:24:18;;;;;;;8.73;4.00;;;;;;;2.63;100.00;100826.13;1607457;89;21782;-87
2022/11/14 03:27:12;;;;;;;8.87;4.20;;;;;;;2.59;100.00;100821.96;1607044;89;21085;-88
2022/11/14 03:30:04;;;;;;;11.27;4.40;;;;;;;2.55;100.00;100829.80;1610225;87;21051;-89
2022/11/14 03:32:52;;;;;;;11.77;5.47;;;;;;;2.51;100.00;100830.94;1618367;88;21116;-88
2022/11/14 03:35:46;;;;;;;10.67;4.57;;;;;;;2.47;100.00;100832.10;1618212;89;21071;-89
2022/11/14 03:38:45;;;;;;;9.97;4.20;;;;;;;2.43;100.00;100839.94;1618178;89;21083;-88
2022/11/14 03:41:37;;;;;;;10.93;4.43;;;;;;;2.37;100.00;100838.50;1555726;92;21118;-89
2022/11/14 03:44:34;;;;;;;9.33;4.20;;;;;;;2.34;100.00;100841.39;1555407;92;21062;-88
2022/11/14 03:47:22;;;;;;;;;;;;;;;2.30;100.00;100843.85;1554825;92;21082;-89
2022/11/14 03:50:10;;;;;;;12.63;3.87;;;;;;;2.26;100.00;100847.69;1555430;90;20231;-89
2022/11/14 03:52:56;;;;;;;6.57;3.50;;;;;;;2.23;100.00;100854.09;1575204;89;21034;-89
2022/11/14 03:59:15;;;;;;;8.30;3.60;;;;;;;2.19;100.00;100860.55;1573256;87;21227;-85
2022/11/14 04:02:03;;;;;;;8.67;3.50;;;;;;;2.16;100.00;100860.77;1612807;89;21094;-89
2022/11/14 04:04:52;;;;;;;8.00;3.30;;;;;;;2.15;100.00;100869.72;1597216;89;21022;-89
2022/11/14 04:07:41;;;;;;;6.30;3.33;;;;;;;2.13;100.00;100878.30;1603395;90;21047;-87
2022/11/14 04:10:30;;;;;;;5.67;3.57;;;;;;;2.12;100.00;100887.23;1614587;88;21049;-87
2022/11/14 04:13:16;;;;;;;7.97;3.80;;;;;;;2.09;100.00;100896.31;1667374;80;21062;-88
2022/11/14 04:19:16;;;;;;;12.70;4.70;;;;;;;2.06;100.00;100896.98;1592989;84;21490;31
2022/11/14 04:22:06;;;;;;;11.10;4.53;;;;;;;2.06;100.00;100891.64;1578308;91;21045;-89
2022/11/14 04:24:58;;;;;;;10.87;4.50;;;;;;;2.03;100.00;100896.67;1553020;93;21091;-88
2022/11/14 04:27:45;;;;;;;11.27;4.40;;;;;;;2.01;100.00;100907.07;1578332;90;21105;-89
2022/11/14 04:30:35;;;;;;;12.70;5.40;;;;;;;2.00;100.00;100912.02;1560714;92;21022;-89
2022/11/14 04:33:28;;;;;;;15.03;6.20;;;;;;;1.97;100.00;100910.41;1575422;91;21072;-88
2022/11/14 04:36:20;;;;;;;14.73;5.28;;;;;;;1.94;100.00;100906.58;1560520;92;21089;-87
2022/11/14 04:39:09;;;;;;;19.53;5.90;;;;;;;1.93;100.00;100914.67;1577998;90;21072;-87
2022/11/14 04:41:56;;;;;;;19.03;6.80;;;;;;;1.89;100.00;100922.89;1560664;91;21116;-87
2022/11/14 04:45:09;;;;;;;18.60;6.50;;;;;;;1.87;100.00;100928.77;1577466;91;21093;-89
2022/11/14 04:48:07;;;;;;;37.28;11.97;;;;;;;1.87;100.00;100941.25;1561089;92;21097;-88
2022/11/14 04:50:57;;;;;;;34.37;11.13;;;;;;;1.86;100.00;100941.73;1552582;92;21025;-87
2022/11/14 04:53:44;;;;;;;30.73;12.07;;;;;;;1.84;100.00;100940.09;1578426;90;21048;-87
2022/11/14 04:56:35;;;;;;;28.13;10.90;;;;;;;1.84;100.00;100947.64;1560714;91;21041;-88
2022/11/14 04:59:24;;;;;;;42.67;14.53;;;;;;;1.84;100.00;100948.98;1578273;90;20982;-89
2022/11/14 05:02:16;;;;;;;51.17;18.60;;;;;;;1.84;100.00;100960.98;1550034;91;21764;-87
2022/11/14 05:05:12;;;;;;;57.63;21.40;;;;;;;1.84;100.00;100965.43;1585857;91;21154;-87
2022/11/14 05:08:03;;;;;;;60.07;22.37;;;;;;;1.84;100.00;100968.98;1577955;91;21147;-87
2022/11/14 05:10:55;;;;;;;48.78;18.48;;;;;;;1.84;100.00;100977.44;1582480;90;21088;-88
2022/11/14 05:13:47;;;;;;;40.93;16.40;;;;;;;1.85;100.00;100976.50;1585812;91;21081;-88
2022/11/14 05:16:40;;;;;;;35.47;13.60;;;;;;;1.86;100.00;100985.75;1585705;91;21005;-88
2022/11/14 05:19:27;;;;;;;31.43;11.83;;;;;;;1.86;100.00;100991.53;1586014;90;21095;-86
2022/11/14 05:22:17;;;;;;;25.50;9.83;;;;;;;1.87;100.00;100999.93;1585370;91;21109;-87
2022/11/14 05:25:08;;;;;;;18.57;7.50;;;;;;;1.92;100.00;100997.84;1555688;92;21069;-86
2022/11/14 05:28:03;;;;;;;19.57;8.17;;;;;;;2.11;100.00;101004.73;1533144;93;21063;-86
2022/11/14 05:30:51;;;;;;;12.82;6.33;;;;;;;2.33;100.00;101009.63;1508933;95;21118;-87
2022/11/14 05:33:42;;;;;;;15.13;5.60;;;;;;;2.53;100.00;101024.41;1485749;96;21094;-88
2022/11/14 05:36:32;;;;;;;13.10;5.07;;;;;;;2.63;100.00;101022.41;1508819;95;21133;-86
2022/11/14 05:39:20;;;;;;;16.13;5.43;;;;;;;2.65;100.00;101023.64;1498753;96;21135;-85
2022/11/14 05:42:09;;;;;;;18.23;7.17;;;;;;;2.65;100.00;101029.84;1509105;95;21104;-89
2022/11/14 05:44:57;;;;;;;12.93;6.63;;;;;;;2.65;100.00;101026.31;1498325;96;21158;-88
2022/11/14 05:47:44;;;;;;;11.23;5.20;;;;;;;2.66;100.00;101026.71;1508974;95;21081;-87
2022/11/14 05:50:33;;;;;;;10.30;4.43;;;;;;;2.66;100.00;101024.89;1482825;95;21577;-79
2022/11/14 05:53:21;;;;;;;16.37;6.27;;;;;;;2.68;100.00;101030.14;1505827;95;21071;-85
2022/11/14 05:56:12;;;;;;;15.23;6.13;;;;;;;2.69;100.00;101025.16;1537835;93;21172;-88
2022/11/14 05:59:01;;;;;;;11.07;5.20;;;;;;;2.71;100.00;101028.62;1550622;93;21099;-87
2022/11/14 06:01:56;;;;;;;11.43;5.13;;;;;;;2.73;100.00;101027.19;1508357;94;21100;-87
2022/11/14 06:04:43;;;;;;;9.37;4.67;;;;;;;2.77;100.00;101029.55;1507589;95;21097;-83
2022/11/14 06:07:29;;;;;;;9.90;4.57;;;;;;;2.84;100.00;101035.38;1487272;95;21627;-81
2022/11/14 06:10:15;;;;;;;12.03;4.90;;;;;;;2.90;100.00;101037.64;1531500;93;21080;-81
2022/11/14 06:13:01;;;;;;;13.17;5.17;;;;;;;3.02;100.00;101042.69;1538887;93;21017;-84
2022/11/14 06:15:46;;;;;;;10.37;4.63;;;;;;;3.12;100.00;101040.30;1582292;90;21078;-82
2022/11/14 06:18:33;;;;;;;11.13;4.50;;;;;;;3.23;100.00;101039.97;1579619;89;21111;-82
2022/11/14 06:21:20;;;;;;;13.13;4.90;;;;;;;3.36;100.00;101041.84;1589496;89;21106;-81
2022/11/14 06:24:07;;;;;;;12.10;5.53;;;;;;;3.49;100.00;101044.11;1572307;91;21114;-86
2022/11/14 06:26:54;;;;;;;14.27;5.77;;;;;;;3.61;100.00;101051.78;1572205;91;21134;-85
2022/11/14 06:29:39;;;;;;;15.33;5.40;;;;;;;3.70;100.00;101041.84;1571915;90;21078;-83
2022/11/14 06:32:26;;;;;;;8.93;4.60;;;;;;;3.82;100.00;101048.17;1576709;90;21093;-82
2022/11/14 06:35:12;;;;;;;11.23;4.33;;;;;;;3.92;100.00;101050.61;1583368;90;21049;-80
2022/11/14 06:37:57;;;;;;;11.83;5.17;;;;;;;4.06;100.00;101042.98;1585741;90;21546;-84
2022/11/14 06:40:44;;;;;;;15.47;7.30;;;;;;;4.20;100.00;101046.06;1570464;90;21083;-80
2022/11/14 06:43:34;;;;;;;20.57;8.50;;;;;;;4.33;100.00;101045.58;1560288;91;21113;-80
2022/11/14 06:46:21;;;;;;;16.07;6.83;;;;;;;4.48;100.00;101042.79;1563340;91;21139;-81
2022/11/14 06:49:06;;;;;;;19.33;7.97;;;;;;;4.62;100.00;101033.33;1564290;91;21077;-80
2022/11/14 06:51:52;;;;;;;17.57;6.57;;;;;;;4.78;100.00;101030.88;1551663;91;21009;-80
2022/11/14 06:54:39;;;;;;;21.77;7.47;;;;;;;4.93;100.00;101018.58;1563079;91;21543;-82
2022/11/14 06:57:25;;;;;;;27.47;10.97;;;;;;;5.13;100.00;101015.81;1550808;91;21103;-79
2022/11/14 07:00:14;;;;;;;23.10;10.73;;;;;;;5.35;100.00;100995.92;1567300;91;21059;-76
2022/11/14 07:03:00;;;;;;;24.73;12.10;;;;;;;5.53;100.00;100979.81;1556433;91;21126;-79
2022/11/14 07:05:45;;;;;;;28.70;13.73;;;;;;;5.71;100.00;100956.09;1576382;91;21074;-76
2022/11/14 07:08:32;;;;;;;38.37;18.93;;;;;;;5.87;100.00;100920.88;1583731;90;21035;-80
2022/11/14 07:11:25;;;;;;;23.60;9.67;;;;;;;6.03;100.00;100885.16;1537123;93;21459;-81
2022/11/14 07:14:12;;;;;;;27.83;13.03;;;;;;;6.19;100.00;100843.67;1553919;92;21069;-81
2022/11/14 07:16:57;;;;;;;23.97;9.43;;;;;;;6.38;100.00;100796.89;1528698;93;21097;-78
2022/11/14 07:19:54;;;;;;;14.50;6.83;;;;;;;6.56;100.00;100750.68;1528903;93;21074;-74
2022/11/14 07:22:41;;;;;;;18.00;7.20;;;;;;;6.76;100.00;100724.31;1529089;93;21077;-70
2022/11/14 07:25:27;;;;;;;111.03;30.93;;;;;;;6.99;100.00;100690.59;1581825;91;21076;-70
2022/11/14 07:28:13;;;;;;;63.57;28.97;;;;;;;7.17;100.00;100658.08;1571917;90;21139;-71
2022/11/14 07:31:06;;;;;;;24.80;11.43;;;;;;;7.43;100.00;100636.59;1597814;90;21111;-70
2022/11/14 07:33:51;;;;;;;19.37;8.67;;;;;;;7.64;100.00;100592.11;1525280;93;21081;-72
2022/11/14 07:36:36;;;;;;;24.07;9.20;;;;;;;7.80;100.00;100542.61;1479908;97;21106;-71
2022/11/14 07:39:21;;;;;;;21.33;9.43;;;;;;;8.02;100.00;100513.69;1503084;95;21095;-70
2022/11/14 07:42:06;;;;;;;20.60;7.70;;;;;;;8.29;100.00;100490.91;1503287;95;21178;-70
2022/11/14 07:44:52;;;;;;;26.27;13.50;;;;;;;8.58;100.00;100485.95;1512514;94;21059;-70
2022/11/14 07:47:38;;;;;;;27.70;13.10;;;;;;;8.86;100.00;100479.25;1501024;95;21096;-71
2022/11/14 07:50:25;;;;;;;26.40;14.13;;;;;;;9.06;100.00;100484.05;1508471;94;21691;-72
2022/11/14 07:53:11;;;;;;;26.07;14.33;;;;;;;9.26;100.00;100493.73;1508956;95;21120;-73
2022/11/14 07:55:58;;;;;;;30.50;12.07;;;;;;;9.41;100.00;100500.80;1510239;95;21157;-70
2022/11/14 07:58:43;;;;;;;23.87;11.67;;;;;;;9.59;100.00;100519.71;1509662;95;21111;-72
2022/11/14 08:01:29;;;;;;;21.07;9.88;;;;;;;9.73;100.00;100536.40;1487698;96;21097;-73
2022/11/14 08:04:14;;;;;;;56.75;30.23;;;;;;;9.84;100.00;100561.34;1500666;95;21218;-72
2022/11/14 08:06:59;;;;;;;48.05;24.18;;;;;;;9.93;100.00;100570.34;1503233;95;21119;-78
2022/11/14 08:09:46;;;;;;;27.77;14.50;;;;;;;10.13;100.00;100585.05;1503366;95;21092;-74
2022/11/14 08:12:31;;;;;;;23.95;11.38;;;;;;;10.28;100.00;100602.42;1502533;95;21734;-73
2022/11/14 08:15:18;;;;;;;43.28;20.68;;;;;;;10.30;100.00;100616.63;1502686;95;21330;-75
2022/11/14 08:18:04;;;;;;;33.80;15.40;;;;;;;10.44;100.00;100639.59;1502425;95;21159;-73
2022/11/14 08:20:50;;;;;;;41.02;19.62;;;;;;;10.37;100.00;100662.34;1506049;93;21138;-76
2022/11/14 08:23:35;;;;;;;53.02;25.40;;;;;;;10.37;100.00;100678.56;1529540;91;21083;-75
2022/11/14 08:26:21;;;;;;;43.85;21.45;;;;;;;10.51;100.00;100683.94;1541598;91;21155;-75
2022/11/14 08:29:06;;;;;;;57.58;28.40;;;;;;;10.60;100.00;100693.81;1542126;88;21131;-77
2022/11/14 08:31:53;;;;;;;26.30;11.30;;;;;;;10.71;100.00;100705.41;1586875;90;21106;-72
2022/11/14 08:34:38;;;;;;;17.42;9.05;;;;;;;10.83;100.00;100706.86;1583249;91;21103;-74
2022/11/14 08:37:23;;;;;;;9.15;4.17;;;;;;;10.89;100.00;100721.13;1575890;90;21044;-72
2022/11/14 08:40:11;;;;;;;19.12;7.42;;;;;;;11.04;100.00;100715.99;1559417;91;21048;-74
2022/11/14 08:43:04;;;;;;;19.25;6.87;;;;;;;11.23;100.00;100719.02;1582214;91;21120;-72
2022/11/14 08:45:54;;;;;;;15.60;7.45;;;;;;;11.46;100.00;100718.48;1590580;89;21089;-73
2022/11/14 08:48:39;;;;;;;20.17;9.30;;;;;;;11.62;100.00;100731.27;1582954;91;21082;-72
2022/11/14 08:51:25;;;;;;;10.95;5.00;;;;;;;11.66;100.00;100751.60;1556437;92;21119;-74
2022/11/14 08:54:11;;;;;;;16.25;6.65;;;;;;;11.58;100.00;100775.44;1584240;89;21070;-73
2022/11/14 08:56:57;;;;;;;9.00;3.50;;;;;;;11.64;100.00;100768.02;1557850;90;21158;-75
2022/11/14 08:59:42;;;;;;;4.85;3.10;;;;;;;11.64;100.00;100788.84;1566548;89;21038;-72
2022/11/14 09:06:07;;;;;;;11.78;4.42;;;;;;;11.55;100.00;100788.78;1441587;99;21138;-82
2022/11/14 09:08:53;;;;;;;17.00;5.83;;;;;;;11.69;100.00;100787.86;1458698;97;21146;-78
2022/11/14 09:11:39;;;;;;;94.05;31.57;;;;;;;11.75;100.00;100793.98;1461484;97;21143;-76
2022/11/14 09:14:25;;;;;;;31.82;13.72;;;;;;;11.92;100.00;100782.25;1466885;97;21159;-76
2022/11/14 09:17:11;;;;;;;30.90;13.10;;;;;;;12.05;100.00;100788.58;1457113;98;21625;-74
2022/11/14 09:19:57;;;;;;;50.98;22.62;;;;;;;12.15;100.00;100783.88;1458213;97;21145;-78
2022/11/14 09:22:45;;;;;;;42.38;19.25;;;;;;;12.27;100.00;100788.52;1463312;97;21158;-75
2022/11/14 09:25:30;;;;;;;28.00;12.78;;;;;;;12.27;100.00;100797.13;1473839;96;21152;-77
2022/11/14 09:28:17;;;;;;;14.33;5.30;;;;;;;12.27;100.00;100799.84;1474368;97;21120;-75
2022/11/14 09:31:07;;;;;;;12.75;5.72;;;;;;;12.07;100.00;100825.85;1463298;97;21104;-80
2022/11/14 09:33:53;;;;;;;11.22;5.33;;;;;;;11.91;100.00;100812.22;1478366;97;21247;-78
2022/11/14 09:36:39;;;;;;;7.28;3.80;;;;;;;11.80;100.00;100821.45;1464409;97;21156;-83
2022/11/14 09:39:39;;;;;;;6.25;3.72;;;;;;;11.70;100.00;100830.18;1468185;97;21082;-82
2022/11/14 09:43:14;;;;;;;5.92;2.55;;;;;;;11.55;100.00;100825.86;1493095;96;21156;-76
2022/11/14 09:46:00;;;;;;;4.35;2.70;;;;;;;11.47;100.00;100823.92;1484045;95;21068;-74
2022/11/14 09:48:46;;;;;;;6.00;3.42;;;;;;;11.43;100.00;100823.05;1459063;97;21171;-77
2022/11/14 09:51:57;;;;;;;;;;;;;;;;;;;;;
2022/11/14 09:55:13;;;;;;;9.85;3.87;;;;;;;11.45;100.00;100819.17;1472781;97;21108;-74
2022/11/14 09:57:58;;;;;;;6.47;3.90;;;;;;;11.53;100.00;100812.98;1501686;96;21605;-75
2022/11/14 10:01:05;;;;;;;4.53;3.30;;;;;;;11.65;100.00;100808.12;1476925;96;21106;-75
2022/11/14 10:04:11;;;;;;;5.40;3.12;;;;;;;11.65;100.00;100813.55;1454086;99;21279;-73
2022/11/14 10:07:35;;;;;;;5.40;2.98;;;;;;;11.72;100.00;100809.19;1434068;100;21143;-74
2022/11/14 10:10:32;;;;;;;2.70;1.95;;;;;;;11.72;100.00;100822.25;1421187;101;21291;-75
2022/11/14 10:13:38;;;;;;;6.37;2.58;;;;;;;11.52;100.00;100827.52;1404608;102;21195;-74
2022/11/14 10:16:37;;;;;;;5.72;3.30;;;;;;;11.52;100.00;100820.23;1342849;107;21174;-78
2022/11/14 10:20:02;;;;;;;14.85;3.98;;;;;;;11.52;100.00;100820.75;1349053;105;21675;-74
2022/11/14 10:23:24;;;;;;;5.42;2.98;;;;;;;11.42;100.00;100821.34;1357305;104;21121;-72
2022/11/14 10:26:30;;;;;;;18.87;8.15;;;;;;;11.32;100.00;100822.29;1332346;105;21650;-73
2022/11/14 10:29:48;;;;;;;8.58;3.08;;;;;;;11.30;100.00;100820.25;1326927;108;21102;-80
2022/11/14 10:32:53;;;;;;;5.35;2.27;;;;;;;11.32;100.00;100818.23;1354188;105;21171;-76
2022/11/14 10:35:43;;;;;;;7.12;2.33;;;;;;;11.24;100.00;100813.25;1379853;102;21140;-76
2022/11/14 10:38:36;;;;;;;12.68;6.15;;;;;;;11.12;100.00;100809.45;1366242;103;21199;-75
2022/11/14 10:41:22;;;;;;;15.53;6.78;;;;;;;11.13;100.00;100805.71;1336916;106;21135;-75
2022/11/14 10:44:12;;;;;;;4.85;3.30;;;;;;;11.20;100.00;100805.95;1368742;99;21128;-73
2022/11/14 10:47:03;;;;;;;3.02;2.37;;;;;;;11.27;100.00;100798.05;1386603;103;21182;-76
2022/11/14 10:49:48;;;;;;;21.77;5.65;;;;;;;11.33;100.00;100807.76;1383764;103;21080;-75
2022/11/14 10:52:38;;;;;;;65.50;27.77;;;;;;;11.30;100.00;100811.28;1382693;103;21659;-76
2022/11/14 10:55:23;;;;;;;9.05;3.85;;;;;;;11.39;100.00;100811.69;1366011;104;21137;-76
2022/11/14 10:58:10;;;;;;;12.65;5.17;;;;;;;11.46;100.00;100824.10;1402781;102;21644;-79
2022/11/14 11:01:00;;;;;;;15.88;6.35;;;;;;;11.35;100.00;100826.05;1364754;105;21212;-77
2022/11/14 11:03:45;;;;;;;9.50;4.05;;;;;;;11.17;100.00;100830.61;1354972;106;21687;-74
2022/11/14 11:06:30;;;;;;;25.45;8.18;;;;;;;11.09;100.00;100829.20;1371759;103;22128;-75
2022/11/14 11:12:46;;;;;;;6.03;2.85;;;;;;;11.15;100.00;100822.64;1299661;110;21196;-73
2022/11/14 11:15:39;;;;;;;9.28;3.65;;;;;;;11.23;100.00;100827.81;1326379;107;21196;-76
2022/11/14 11:18:32;;;;;;;5.53;3.47;;;;;;;11.23;100.00;100833.23;1329379;107;21271;-76
2022/11/14 11:21:22;;;;;;;5.65;2.85;;;;;;;11.24;100.00;100837.61;1310949;108;21209;-75
2022/11/14 11:24:08;;;;;;;9.43;2.60;;;;;;;11.21;100.00;100829.31;1297280;111;21204;-76
2022/11/14 11:27:04;;;;;;;4.22;2.22;;;;;;;11.18;100.00;100825.05;1328673;108;21247;-76
2022/11/14 11:30:21;;;;;;;5.47;2.80;;;;;;;11.26;100.00;100820.22;1271787;112;21691;-77
2022/11/14 11:33:20;;;;;;;3.83;2.47;;;;;;;11.27;100.00;100832.73;1267650;113;21190;-74
2022/11/14 11:36:16;;;;;;;3.92;1.98;;;;;;;11.11;100.00;100838.02;1219805;117;21759;-78
2022/11/14 11:39:01;;;;;;;4.33;2.35;;;;;;;10.93;100.00;100833.96;1220420;117;21223;-78
2022/11/14 11:41:47;;;;;;;3.12;2.52;;;;;;;10.89;100.00;100833.89;1220297;117;21176;-78
2022/11/14 11:44:39;;;;;;;5.33;3.08;;;;;;;10.87;100.00;100828.66;1223847;117;21286;-78
2022/11/14 11:47:25;;;;;;;6.62;3.05;;;;;;;10.89;100.00;100828.00;1228433;116;21210;-76
2022/11/14 11:50:15;;;;;;;4.00;3.00;;;;;;;11.00;100.00;100821.00;1227142;115;21273;-78
2022/11/14 11:53:23;;;;;;;14.33;4.65;;;;;;;11.30;100.00;100826.17;1239394;115;21234;-79
2022/11/14 11:56:20;;;;;;;66.33;21.77;;;;;;;11.73;100.00;100819.87;1239191;116;21245;-79
2022/11/14 11:59:28;;;;;;;21.73;7.75;;;;;;;12.26;100.00;100829.34;1260804;114;21639;-78
2022/11/14 12:02:23;;;;;;;8.35;4.30;;;;;;;12.71;100.00;100821.34;1255148;114;21281;-78
2022/11/14 12:05:19;;;;;;;7.90;3.85;;;;;;;13.09;100.00;100832.10;1278394;112;21163;-81
2022/11/14 12:08:27;;;;;;;6.08;3.20;;;;;;;13.22;100.00;100840.27;1289838;107;21158;-79
2022/11/14 12:11:16;;;;;;;11.28;4.33;;;;;;;13.27;100.00;100848.23;1331200;108;21259;-80
2022/11/14 12:14:41;;;;;;;5.90;2.60;;;;;;;13.49;100.00;100849.96;1325492;108;21326;-82
2022/11/14 12:17:57;;;;;;;5.10;2.58;;;;;;;13.62;100.00;100853.02;1325232;108;21161;-80
2022/11/14 12:21:14;;;;;;;3.83;2.70;;;;;;;13.53;100.00;100877.15;1328112;108;21173;-78
2022/11/14 12:24:43;;;;;;;14.40;7.55;;;;;;;13.48;100.00;100888.52;1274108;112;21309;-75
2022/11/14 12:27:41;;;;;;;11.40;3.80;;;;;;;13.38;100.00;100893.77;1261504;114;21207;-80
2022/11/14 12:30:26;;;;;;;8.15;4.42;;;;;;;13.36;100.00;100898.02;1262826;113;21750;-78
2022/11/14 12:33:23;;;;;;;9.30;3.77;;;;;;;13.37;100.00;100901.09;1279225;111;21197;-79
2022/11/14 12:36:10;;;;;;;9.68;3.87;;;;;;;13.37;100.00;100901.09;1310539;109;21265;-82
2022/11/14 12:38:56;;;;;;;6.67;3.02;;;;;;;13.38;100.00;100908.20;1305141;109;21182;-78
2022/11/14 12:41:42;;;;;;;4.83;2.30;;;;;;;13.23;100.00;100904.44;1305193;109;21714;-81
2022/11/14 12:44:32;;;;;;;6.12;2.58;;;;;;;12.97;100.00;100905.90;1306506;108;21272;-79
2022/11/14 12:47:22;;;;;;;4.40;2.75;;;;;;;12.65;100.00;100908.33;1312505;109;21172;-79
2022/11/14 12:50:30;;;;;;;4.90;2.98;;;;;;;12.65;100.00;100908.33;1335160;106;21159;-80
2022/11/14 12:53:35;;;;;;;7.05;2.65;;;;;;;12.58;100.00;100907.80;1351025;105;21245;-79
2022/11/14 12:56:35;;;;;;;6.53;2.90;;;;;;;12.34;100.00;100910.23;1336501;107;21152;-80
2022/11/14 12:59:50;;;;;;;6.20;3.33;;;;;;;12.12;100.00;100915.68;1334656;107;21180;-78
2022/11/14 13:02:54;;;;;;;10.43;3.47;;;;;;;12.12;100.00;100915.68;1262929;114;21168;-79
2022/11/14 13:06:03;;;;;;;9.68;3.75;;;;;;;11.90;100.00;100914.84;1228321;114;21280;-79
2022/11/14 13:09:11;;;;;;;20.00;6.37;;;;;;;11.92;100.00;100912.85;1288638;111;21428;-80
2022/11/14 13:21:47;;;;;;;21.85;10.58;;;;;;;11.30;100.00;100912.30;1338422;107;21202;-78
2022/11/14 13:25:01;;;;;;;8.15;4.90;;;;;;;11.21;100.00;100904.60;1350893;106;21210;-77
2022/11/14 13:27:47;;;;;;;5.67;3.77;;;;;;;11.10;100.00;100908.90;1351659;106;21268;-80
2022/11/14 13:31:17;;;;;;;9.60;4.22;;;;;;;10.90;100.00;100906.80;1351685;106;21170;-79
2022/11/14 13:34:51;;;;;;;10.95;4.45;;;;;;;10.67;100.00;100907.72;1379257;101;21174;-80
2022/11/14 13:37:45;;;;;;;7.42;3.80;;;;;;;10.16;100.00;100904.98;1374298;102;21144;-77
2022/11/14 13:41:05;;;;;;;9.65;3.80;;;;;;;9.57;100.00;100901.56;1373608;104;21160;-77
2022/11/14 13:44:11;;;;;;;8.35;4.03;;;;;;;9.18;100.00;100888.92;1372258;103;21261;-75